This is the latest recevied weather packets stored in our database for station/object K4VEB. If no packets are shown the sender has not sent any weather packets the latest 10 day(s).
| Time | Temp. | Humidity | Pressure | Rain* | Wind** | Luminosity | Snow |
|---|---|---|---|---|---|---|---|
| 1777909243 | 25° C | 44% | 1017.7 hPa | 0 mm | - | 712 W/m² | - |
| 1777908941 | 25° C | 44% | 1017.5 hPa | 0 mm | - | 712 W/m² | - |
| 1777908639 | 25° C | 44% | 1017.5 hPa | 0 mm | - | 706 W/m² | - |
| 1777908031 | 25° C | 46% | 1017.4 hPa | 0 mm | - | 679 W/m² | - |
| 1777907728 | 25° C | 46% | 1017.9 hPa | 0 mm | - | 679 W/m² | - |
| 1777907428 | 25.56° C | 46% | 1017.9 hPa | 0 mm | - | 665 W/m² | - |
| 1777907125 | 25° C | 47% | 1017.8 hPa | 0 mm | - | 664 W/m² | - |
| 1777906823 | 25° C | 47% | 1017.8 hPa | 0 mm | - | 664 W/m² | - |
| 1777906220 | 25° C | 52% | 1017.8 hPa | 0 mm | - | 612 W/m² | - |
| 1777905917 | 25° C | 52% | 1017.9 hPa | 0 mm | - | 612 W/m² | - |
| 1777905614 | 25° C | 50% | 1017.7 hPa | 0 mm | - | 628 W/m² | - |
| 1777905311 | 24.44° C | 49% | 1017.8 hPa | 0 mm | - | 584 W/m² | - |
| 1777905009 | 24.44° C | 49% | 1017.8 hPa | 0 mm | - | 574 W/m² | - |
| 1777904706 | 23.89° C | 50% | 1017.9 hPa | 0 mm | - | 525 W/m² | - |
| 1777904403 | 23.89° C | 50% | 1018 hPa | 0 mm | - | 525 W/m² | - |
| 1777904099 | 23.89° C | 54% | 1017.9 hPa | 0 mm | - | 500 W/m² | - |
| 1777903796 | 23.89° C | 54% | 1017.7 hPa | 0 mm | - | 500 W/m² | - |
| 1777902885 | 22.78° C | 62% | 1017.7 hPa | 0 mm | - | 428 W/m² | - |
| 1777902583 | 22.78° C | 62% | 1017.5 hPa | 0 mm | - | 428 W/m² | - |
| 1777902280 | 22.78° C | 60% | 1017.6 hPa | 0 mm | - | 422 W/m² | - |
| 1777901978 | 22.78° C | 60% | 1017.5 hPa | 0 mm | - | 408 W/m² | - |
| 1777901675 | 22.78° C | 64% | 1017.3 hPa | 0 mm | - | 389 W/m² | - |
| 1777901372 | 22.78° C | 64% | 1017.4 hPa | 0 mm | - | 374 W/m² | - |
| 1777901070 | 22.22° C | 66% | 1017.4 hPa | 0 mm | - | 352 W/m² | - |
| 1777900767 | 22.22° C | 67% | 1017.4 hPa | 0 mm | - | 340 W/m² | - |
* Rain latest hour (hover to see other rain measurements)
** Current wind speed in m/s (hover to see current wind gust speed)